createdAt,value
2018-06-17T00:02:16.541Z,8.43
2018-06-17T00:04:45.750Z,7.93
2018-06-17T00:07:14.976Z,8.53
2018-06-17T00:09:44.210Z,9.27
2018-06-17T00:12:13.874Z,8.33
2018-06-17T00:14:43.374Z,7.57
2018-06-17T00:17:13.052Z,9.27
2018-06-17T00:19:42.808Z,9.37
2018-06-17T00:22:12.701Z,9.13
2018-06-17T00:24:41.956Z,10.53
2018-06-17T00:27:11.555Z,9.27
2018-06-17T00:29:40.932Z,8.47
2018-06-17T00:32:10.419Z,8.33
2018-06-17T00:34:39.551Z,8.57
2018-06-17T00:37:09.245Z,9.63
2018-06-17T00:39:38.488Z,8.60
2018-06-17T00:42:07.593Z,9.13
2018-06-17T00:44:36.856Z,9.03
2018-06-17T00:47:06.910Z,8.43
2018-06-17T00:49:36.124Z,9.10
2018-06-17T00:52:05.323Z,9.07
2018-06-17T00:54:34.872Z,9.17
2018-06-17T00:57:15.251Z,9.20
2018-06-17T00:59:44.876Z,10.63
2018-06-17T01:02:14.637Z,10.33
2018-06-17T01:04:43.840Z,10.63
2018-06-17T01:07:13.052Z,12.10
2018-06-17T01:09:42.768Z,11.27
2018-06-17T01:12:12.552Z,10.77
2018-06-17T01:14:41.812Z,10.53
2018-06-17T01:17:11.108Z,10.67
2018-06-17T01:19:40.526Z,9.97
2018-06-17T01:22:10.034Z,12.40
2018-06-17T01:24:39.370Z,11.27
2018-06-17T01:27:08.469Z,11.97
2018-06-17T01:29:37.787Z,11.17
2018-06-17T01:32:07.102Z,14.10
2018-06-17T01:34:36.531Z,14.27
2018-06-17T01:37:05.650Z,12.93
2018-06-17T01:39:34.984Z,12.63
2018-06-17T01:42:04.178Z,13.57
2018-06-17T01:44:33.346Z,14.40
2018-06-17T01:47:02.757Z,14.73
2018-06-17T01:49:32.150Z,14.87
2018-06-17T01:52:01.415Z,15.90
2018-06-17T01:54:30.769Z,15.33
2018-06-17T01:57:00.380Z,15.33
2018-06-17T01:59:29.896Z,14.90
2018-06-17T02:01:59.287Z,16.97
2018-06-17T02:04:33.977Z,16.60
2018-06-17T02:09:15.174Z,17.53
2018-06-17T02:11:49.562Z,17.23
2018-06-17T02:14:24.202Z,17.53
2018-06-17T02:16:53.882Z,16.63
2018-06-17T02:19:23.652Z,16.67
2018-06-17T02:21:52.914Z,18.57
2018-06-17T02:24:22.431Z,18.20
2018-06-17T02:26:51.819Z,18.80
2018-06-17T02:29:20.822Z,16.80
2018-06-17T02:31:50.284Z,18.33
2018-06-17T02:34:19.461Z,18.10
2018-06-17T02:36:48.935Z,19.13
2018-06-17T02:39:18.104Z,18.57
2018-06-17T02:41:47.927Z,18.37
2018-06-17T02:44:17.293Z,16.93
2018-06-17T02:46:51.564Z,17.03
2018-06-17T02:49:25.899Z,17.57
2018-06-17T02:52:00.560Z,16.67
2018-06-17T02:54:45.637Z,16.17
2018-06-17T02:57:16.470Z,17.53
2018-06-17T02:59:46.972Z,15.00
2018-06-17T03:02:16.863Z,16.20
2018-06-17T03:04:47.411Z,15.90
2018-06-17T03:07:17.741Z,14.80
2018-06-17T03:09:48.045Z,14.17
2018-06-17T03:12:18.273Z,14.00
2018-06-17T03:14:48.333Z,14.80
2018-06-17T03:17:19.052Z,15.30
2018-06-17T03:19:49.798Z,13.70
2018-06-17T03:22:20.187Z,14.07
2018-06-17T03:24:55.512Z,14.63
2018-06-17T03:27:30.999Z,15.13
2018-06-17T03:30:06.576Z,13.97
2018-06-17T03:32:42.512Z,12.80
2018-06-17T03:35:18.106Z,14.40
2018-06-17T03:37:48.343Z,13.97
2018-06-17T03:40:19.543Z,12.50
2018-06-17T03:42:50.106Z,12.30
2018-06-17T03:45:20.509Z,13.17
2018-06-17T03:47:50.839Z,12.13
2018-06-17T03:50:20.973Z,11.93
2018-06-17T03:52:51.123Z,11.20
2018-06-17T03:55:21.969Z,12.07
2018-06-17T03:57:52.413Z,10.83
2018-06-17T04:00:23.117Z,12.33
2018-06-17T04:02:53.641Z,11.67
2018-06-17T04:05:29.765Z,12.37
2018-06-17T04:08:01.177Z,12.87
2018-06-17T04:10:31.755Z,11.93
2018-06-17T04:13:01.787Z,12.90
2018-06-17T04:15:31.973Z,13.83
2018-06-17T04:18:02.367Z,13.47
2018-06-17T04:20:32.505Z,13.13
2018-06-17T04:23:04.475Z,12.47
2018-06-17T04:25:35.696Z,13.33
2018-06-17T04:28:06.033Z,12.93
2018-06-17T04:30:37.399Z,12.80
2018-06-17T04:33:08.248Z,14.40
2018-06-17T04:35:38.687Z,13.50
2018-06-17T04:38:08.965Z,15.10
2018-06-17T04:40:38.924Z,14.43
2018-06-17T04:43:09.145Z,16.57
2018-06-17T04:45:40.074Z,15.30
2018-06-17T04:48:10.543Z,15.33
2018-06-17T04:50:40.874Z,16.70
2018-06-17T04:53:11.485Z,16.53
2018-06-17T04:55:42.561Z,17.07
2018-06-17T04:58:13.945Z,15.80
2018-06-17T05:00:44.489Z,16.13
2018-06-17T05:03:15.140Z,14.63
2018-06-17T05:05:45.821Z,16.73
2018-06-17T05:08:16.071Z,15.73
2018-06-17T05:10:46.944Z,15.10
2018-06-17T05:13:17.216Z,13.97
2018-06-17T05:15:47.390Z,16.17
2018-06-17T05:18:18.054Z,14.33
2018-06-17T05:20:48.413Z,16.70
2018-06-17T05:23:18.857Z,15.20
2018-06-17T05:25:49.056Z,15.30
2018-06-17T05:28:19.015Z,15.33
2018-06-17T05:30:49.965Z,14.60
2018-06-17T05:33:20.644Z,15.73
2018-06-17T05:35:50.902Z,15.13
2018-06-17T05:38:21.829Z,15.60
2018-06-17T05:40:52.134Z,14.47
2018-06-17T05:43:22.490Z,15.37
2018-06-17T05:45:52.330Z,15.37
2018-06-17T05:48:23.214Z,15.17
2018-06-17T05:50:53.912Z,15.67
2018-06-17T05:53:24.350Z,16.00
2018-06-17T05:55:54.701Z,15.13
2018-06-17T05:58:24.849Z,14.07
2018-06-17T06:00:54.791Z,11.57
2018-06-17T06:03:24.451Z,11.00
2018-06-17T06:05:54.743Z,7.47
2018-06-17T06:08:25.064Z,8.17
2018-06-17T06:10:55.715Z,6.87
2018-06-17T06:13:25.859Z,7.20
2018-06-17T06:15:55.983Z,6.53
2018-06-17T06:18:26.917Z,6.10
2018-06-17T06:20:56.937Z,6.43
2018-06-17T06:23:27.092Z,6.47
2018-06-17T06:25:57.288Z,4.70
2018-06-17T06:28:26.991Z,4.77
2018-06-17T06:30:57.049Z,5.07
2018-06-17T06:33:26.978Z,6.47
2018-06-17T06:35:57.483Z,5.93
2018-06-17T06:38:27.272Z,5.57
2018-06-17T06:40:57.159Z,6.67
2018-06-17T06:43:26.833Z,7.17
2018-06-17T06:45:57.085Z,7.97
2018-06-17T06:48:27.272Z,7.23
2018-06-17T06:50:57.153Z,7.67
2018-06-17T06:53:27.147Z,7.40
2018-06-17T06:55:57.944Z,8.17
2018-06-17T06:58:27.899Z,7.83
2018-06-17T07:00:58.107Z,8.80
2018-06-17T07:05:46.715Z,7.37
2018-06-17T07:08:27.110Z,7.30
2018-06-17T07:10:57.070Z,5.83
2018-06-17T07:13:26.648Z,6.53
2018-06-17T07:16:07.090Z,6.17
2018-06-17T07:18:39.924Z,5.20
2018-06-17T07:21:10.384Z,5.80
2018-06-17T07:23:40.522Z,4.83
2018-06-17T07:26:40.644Z,4.63
2018-06-17T07:29:21.641Z,4.17
2018-06-17T07:31:51.658Z,3.40
2018-06-17T07:34:21.380Z,2.73
2018-06-17T07:36:51.100Z,2.50
2018-06-17T07:40:31.737Z,2.80
2018-06-17T07:43:01.188Z,2.40
2018-06-17T07:45:30.964Z,2.63
2018-06-17T07:48:00.829Z,2.10
2018-06-17T07:51:39.564Z,2.33
2018-06-17T07:54:09.633Z,2.00
2018-06-17T07:56:39.345Z,2.10
2018-06-17T07:59:08.870Z,2.13
2018-06-17T08:01:38.618Z,1.80
2018-06-17T08:04:08.389Z,1.47
2018-06-17T08:06:38.174Z,1.50
2018-06-17T08:09:08.450Z,1.90
2018-06-17T08:11:38.105Z,1.30
2018-06-17T08:14:08.094Z,1.90
2018-06-17T08:16:42.290Z,1.63
2018-06-17T08:19:12.098Z,1.90
2018-06-17T08:21:41.729Z,1.40
2018-06-17T08:24:11.598Z,1.87
2018-06-17T08:26:41.050Z,1.60
2018-06-17T08:29:11.278Z,1.40
2018-06-17T08:31:40.890Z,1.67
2018-06-17T08:34:11.174Z,1.63
2018-06-17T08:36:41.491Z,1.60
2018-06-17T08:39:13.586Z,1.53
2018-06-17T08:41:43.736Z,1.40
2018-06-17T08:44:13.964Z,1.43
2018-06-17T08:46:44.388Z,1.70
2018-06-17T08:49:15.227Z,1.40
2018-06-17T08:51:45.132Z,1.37
2018-06-17T08:54:15.746Z,1.60
2018-06-17T08:56:45.716Z,1.50
2018-06-17T08:59:15.560Z,1.37
2018-06-17T09:01:45.632Z,1.57
2018-06-17T09:04:15.724Z,1.40
2018-06-17T09:06:46.074Z,1.20
2018-06-17T09:09:16.582Z,1.30
2018-06-17T09:11:46.591Z,1.33
2018-06-17T09:14:16.611Z,1.40
2018-06-17T09:16:46.173Z,1.30
2018-06-17T09:19:17.207Z,1.40
2018-06-17T09:21:47.219Z,1.77
2018-06-17T09:24:17.449Z,1.73
2018-06-17T09:26:47.697Z,1.40
2018-06-17T09:29:18.125Z,1.70
2018-06-17T09:31:47.873Z,1.70
2018-06-17T09:34:17.922Z,1.60
2018-06-17T09:36:47.994Z,1.80
2018-06-17T09:39:17.547Z,2.00
2018-06-17T09:41:48.327Z,1.30
2018-06-17T09:44:18.241Z,1.40
2018-06-17T09:46:48.123Z,1.60
2018-06-17T09:49:18.170Z,1.40
2018-06-17T09:51:48.304Z,1.90
2018-06-17T09:54:18.258Z,1.60
2018-06-17T09:56:49.507Z,1.77
2018-06-17T09:59:19.392Z,1.70
2018-06-17T10:01:48.850Z,1.80
2018-06-17T10:04:18.988Z,1.43
2018-06-17T10:06:48.668Z,1.60
2018-06-17T10:09:18.330Z,1.93
2018-06-17T10:11:48.179Z,1.40
2018-06-17T10:14:18.247Z,2.10
2018-06-17T10:16:48.013Z,1.43
2018-06-17T10:19:17.780Z,1.90
2018-06-17T10:21:47.342Z,2.07
2018-06-17T10:24:17.257Z,1.90
2018-06-17T10:26:47.205Z,1.80
2018-06-17T10:29:16.632Z,2.00
2018-06-17T10:31:46.077Z,2.20
2018-06-17T10:34:16.023Z,1.90
2018-06-17T10:36:45.812Z,2.23
2018-06-17T10:39:15.966Z,2.30
2018-06-17T10:41:45.759Z,2.27
2018-06-17T10:44:15.463Z,2.30
2018-06-17T10:46:45.192Z,2.40
2018-06-17T10:49:15.481Z,2.50
2018-06-17T10:51:45.759Z,2.40
2018-06-17T10:54:16.176Z,2.43
2018-06-17T10:56:47.290Z,2.40
2018-06-17T10:59:17.334Z,3.13
2018-06-17T11:01:47.324Z,2.87
2018-06-17T11:04:17.313Z,2.40
2018-06-17T11:06:47.769Z,2.80
2018-06-17T11:09:17.307Z,3.00
2018-06-17T11:11:47.216Z,3.00
2018-06-17T11:14:17.786Z,2.83
2018-06-17T11:16:47.632Z,2.93
2018-06-17T11:19:17.586Z,2.90
2018-06-17T11:21:47.782Z,3.03
2018-06-17T11:24:18.194Z,3.30
2018-06-17T11:26:48.192Z,2.93
2018-06-17T11:29:18.322Z,3.60
2018-06-17T11:31:48.111Z,3.10
2018-06-17T11:34:17.828Z,3.40
2018-06-17T11:36:47.557Z,3.20
2018-06-17T11:39:17.520Z,3.60
2018-06-17T11:41:47.595Z,3.30
2018-06-17T11:44:17.420Z,3.10
2018-06-17T11:46:47.191Z,2.80
2018-06-17T11:49:17.148Z,3.10
2018-06-17T11:51:47.175Z,3.50
2018-06-17T11:54:18.530Z,3.20
2018-06-17T11:56:48.915Z,3.10
2018-06-17T11:59:18.802Z,3.10
2018-06-17T12:01:48.639Z,3.37
2018-06-17T12:04:18.704Z,3.20
2018-06-17T12:06:48.581Z,3.27
2018-06-17T12:09:18.726Z,3.43
2018-06-17T12:11:48.719Z,3.10
2018-06-17T12:14:18.541Z,3.63
2018-06-17T12:16:48.270Z,3.37
2018-06-17T12:19:18.351Z,4.17
2018-06-17T12:21:48.035Z,3.47
2018-06-17T12:24:18.070Z,3.20
2018-06-17T12:26:48.087Z,3.27
2018-06-17T12:29:17.840Z,3.50
2018-06-17T12:31:48.229Z,3.93
2018-06-17T12:34:17.871Z,3.30
2018-06-17T12:36:47.441Z,3.40
2018-06-17T12:39:17.254Z,3.53
2018-06-17T12:41:47.059Z,3.33
2018-06-17T12:44:16.703Z,3.80
2018-06-17T12:46:46.553Z,3.63
2018-06-17T12:49:16.275Z,4.13
2018-06-17T12:51:46.300Z,3.27
2018-06-17T12:54:16.159Z,3.30
2018-06-17T12:56:46.159Z,3.50
2018-06-17T12:59:17.266Z,3.20
2018-06-17T13:01:47.121Z,3.50
2018-06-17T13:04:16.781Z,3.60
2018-06-17T13:06:46.350Z,3.70
2018-06-17T13:09:17.039Z,3.30
2018-06-17T13:11:50.695Z,3.20
2018-06-17T13:14:20.983Z,2.90
2018-06-17T13:16:52.437Z,3.23
2018-06-17T13:19:22.399Z,3.23
2018-06-17T13:21:52.022Z,3.97
2018-06-17T13:24:23.816Z,3.30
2018-06-17T13:26:56.523Z,3.60
2018-06-17T13:29:27.362Z,2.90
2018-06-17T13:31:57.579Z,3.10
2018-06-17T13:34:27.151Z,3.10
2018-06-17T13:36:56.986Z,3.57
2018-06-17T13:39:26.575Z,3.60
2018-06-17T13:41:56.153Z,3.20
2018-06-17T13:44:26.378Z,3.37
2018-06-17T13:46:56.441Z,3.23
2018-06-17T13:49:26.415Z,2.97
2018-06-17T13:51:56.410Z,2.93
2018-06-17T13:54:26.221Z,3.13
2018-06-17T13:56:57.081Z,3.30
2018-06-17T13:59:26.997Z,2.80
2018-06-17T14:01:56.656Z,2.93
2018-06-17T14:04:26.272Z,2.87
2018-06-17T14:06:56.605Z,2.53
2018-06-17T14:09:26.481Z,2.70
2018-06-17T14:11:56.446Z,3.17
2018-06-17T14:14:26.406Z,3.90
2018-06-17T14:16:56.209Z,3.10
2018-06-17T14:19:26.157Z,2.73
2018-06-17T14:21:55.858Z,2.60
2018-06-17T14:24:25.469Z,3.07
2018-06-17T14:26:55.071Z,2.90
2018-06-17T14:29:25.050Z,3.40
2018-06-17T14:31:54.871Z,2.90
2018-06-17T14:34:24.794Z,2.80
2018-06-17T14:36:54.802Z,2.90
2018-06-17T14:39:24.686Z,2.97
2018-06-17T14:41:59.748Z,2.70
2018-06-17T14:44:34.378Z,2.73
2018-06-17T14:47:08.906Z,2.77
2018-06-17T14:49:43.526Z,2.93
2018-06-17T14:52:18.383Z,2.67
2018-06-17T14:54:47.853Z,2.80
2018-06-17T14:57:17.371Z,2.70
2018-06-17T14:59:47.175Z,3.07
2018-06-17T15:02:16.443Z,3.20
2018-06-17T15:04:46.231Z,2.90
2018-06-17T15:07:16.326Z,2.83
2018-06-17T15:09:45.914Z,2.90
2018-06-17T15:12:15.880Z,3.40
2018-06-17T15:14:45.574Z,2.43
2018-06-17T15:17:15.611Z,2.70
2018-06-17T15:19:45.749Z,3.10
2018-06-17T15:22:15.612Z,2.20
2018-06-17T15:24:45.975Z,2.33
2018-06-17T15:27:16.677Z,2.90
2018-06-17T15:29:46.883Z,2.20
2018-06-17T15:32:21.429Z,2.63
2018-06-17T15:34:55.966Z,2.67
2018-06-17T15:37:30.927Z,2.27
2018-06-17T15:40:01.352Z,2.37
2018-06-17T15:42:31.061Z,2.67
2018-06-17T15:45:00.885Z,2.50
2018-06-17T15:47:30.749Z,2.53
2018-06-17T15:50:00.766Z,2.63
2018-06-17T15:52:30.770Z,3.13
2018-06-17T15:55:01.123Z,2.80
2018-06-17T15:57:30.965Z,2.50
2018-06-17T16:00:00.762Z,2.80
2018-06-17T16:02:31.447Z,2.70
2018-06-17T16:05:01.604Z,2.27
2018-06-17T16:07:31.846Z,2.90
2018-06-17T16:10:02.446Z,2.27
2018-06-17T16:12:37.798Z,2.97
2018-06-17T16:15:13.326Z,2.53
2018-06-17T16:17:48.710Z,2.63
2018-06-17T16:21:26.743Z,2.87
2018-06-17T16:23:56.355Z,2.80
2018-06-17T16:26:26.614Z,2.90
2018-06-17T16:28:56.778Z,2.67
2018-06-17T16:31:26.684Z,2.67
2018-06-17T16:33:56.502Z,2.73
2018-06-17T16:36:28.030Z,2.80
2018-06-17T16:38:58.580Z,3.10
2018-06-17T16:41:29.128Z,3.00
2018-06-17T16:43:59.062Z,2.27
2018-06-17T16:46:29.100Z,3.13
2018-06-17T16:48:58.809Z,2.50
2018-06-17T16:51:34.030Z,3.13
2018-06-17T16:54:08.756Z,3.00
2018-06-17T16:56:43.614Z,2.90
2018-06-17T16:59:18.992Z,2.90
2018-06-17T17:01:49.260Z,2.30
2018-06-17T17:04:19.334Z,2.80
2018-06-17T17:06:49.090Z,2.80
2018-06-17T17:09:19.756Z,3.40
2018-06-17T17:11:49.804Z,2.77
2018-06-17T17:14:19.908Z,2.53
2018-06-17T17:16:49.758Z,2.60
2018-06-17T17:19:20.870Z,2.40
2018-06-17T17:21:51.110Z,2.60
2018-06-17T17:24:21.216Z,2.83
2018-06-17T17:26:52.054Z,3.03
2018-06-17T17:29:22.544Z,2.87
2018-06-17T17:31:58.796Z,2.73
2018-06-17T17:34:35.092Z,2.77
2018-06-17T17:37:10.690Z,2.97
2018-06-17T17:39:46.295Z,2.83
2018-06-17T17:42:17.609Z,2.57
2018-06-17T17:44:52.970Z,3.03
2018-06-17T17:47:24.504Z,2.63
2018-06-17T17:49:55.336Z,3.10
2018-06-17T17:52:25.656Z,2.57
2018-06-17T17:54:56.344Z,2.83
2018-06-17T17:57:27.754Z,2.60
2018-06-17T17:59:58.086Z,2.90
2018-06-17T18:02:27.985Z,2.77
2018-06-17T18:04:58.094Z,2.30
2018-06-17T18:07:28.663Z,2.70
2018-06-17T18:09:58.655Z,2.60
2018-06-17T18:12:29.416Z,2.47
2018-06-17T18:14:59.943Z,2.33
2018-06-17T18:17:30.389Z,1.93
2018-06-17T18:20:01.415Z,2.30
2018-06-17T18:22:31.850Z,2.30
2018-06-17T18:25:07.426Z,2.13
2018-06-17T18:27:43.034Z,2.50
2018-06-17T18:30:18.646Z,2.40
2018-06-17T18:32:53.812Z,2.60
2018-06-17T18:35:30.961Z,2.10
2018-06-17T18:38:02.808Z,2.33
2018-06-17T18:40:33.154Z,2.50
2018-06-17T18:43:03.790Z,2.77
2018-06-17T18:45:33.636Z,2.60
2018-06-17T18:48:03.727Z,2.57
2018-06-17T18:50:34.932Z,2.30
2018-06-17T18:53:05.199Z,2.40
2018-06-17T18:55:36.400Z,2.00
2018-06-17T18:58:07.079Z,2.13
2018-06-17T19:00:38.942Z,2.43
2018-06-17T19:03:09.272Z,2.20
2018-06-17T19:05:40.148Z,2.40
2018-06-17T19:08:15.908Z,3.13
2018-06-17T19:10:51.191Z,2.30
2018-06-17T19:13:26.049Z,2.30
2018-06-17T19:16:02.767Z,2.17
2018-06-17T19:18:32.897Z,2.30
2018-06-17T19:21:03.078Z,2.27
2018-06-17T19:23:33.037Z,2.23
2018-06-17T19:26:02.675Z,2.40
2018-06-17T19:28:32.535Z,2.23
2018-06-17T19:31:02.500Z,2.10
2018-06-17T19:33:32.304Z,2.50
2018-06-17T19:36:01.680Z,2.43
2018-06-17T19:38:31.296Z,2.10
2018-06-17T19:41:01.512Z,2.37
2018-06-17T19:43:30.737Z,2.40
2018-06-17T19:46:00.257Z,2.50
2018-06-17T19:48:29.750Z,2.47
2018-06-17T19:51:04.072Z,2.63
2018-06-17T19:53:38.438Z,2.20
2018-06-17T19:56:12.929Z,2.10
2018-06-17T19:58:47.400Z,2.27
2018-06-17T20:01:16.442Z,2.33
2018-06-17T20:03:45.600Z,2.33
2018-06-17T20:06:15.181Z,2.47
2018-06-17T20:08:44.284Z,2.30
2018-06-17T20:11:13.577Z,1.90
2018-06-17T20:13:42.952Z,2.50
2018-06-17T20:16:11.983Z,2.20
2018-06-17T20:18:41.082Z,2.13
2018-06-17T20:21:10.507Z,2.50
2018-06-17T20:23:39.912Z,2.40
2018-06-17T20:26:09.381Z,2.77
2018-06-17T20:28:39.061Z,3.17
2018-06-17T20:31:08.704Z,2.80
2018-06-17T20:33:43.256Z,2.60
2018-06-17T20:36:17.791Z,2.67
2018-06-17T20:38:52.444Z,2.23
2018-06-17T20:41:26.972Z,2.80
2018-06-17T20:43:56.438Z,2.03
2018-06-17T20:46:26.101Z,2.70
2018-06-17T20:48:56.446Z,2.40
2018-06-17T20:51:25.780Z,2.63
2018-06-17T20:53:55.773Z,2.60
2018-06-17T20:56:25.612Z,3.40
2018-06-17T20:58:55.010Z,2.87
2018-06-17T21:01:24.471Z,2.57
2018-06-17T21:03:54.097Z,2.80
2018-06-17T21:06:23.375Z,2.73
2018-06-17T21:08:52.974Z,2.53
2018-06-17T21:11:22.502Z,2.90
2018-06-17T21:13:52.118Z,2.40
2018-06-17T21:16:21.521Z,2.87
2018-06-17T21:18:56.110Z,3.27
2018-06-17T21:21:31.271Z,2.60
2018-06-17T21:24:06.171Z,2.30
2018-06-17T21:26:40.690Z,3.60
2018-06-17T21:29:10.292Z,3.00
2018-06-17T21:31:40.278Z,2.63
2018-06-17T21:34:10.463Z,2.73
2018-06-17T21:36:40.101Z,3.63
2018-06-17T21:39:10.853Z,2.70
2018-06-17T21:41:40.616Z,3.43
2018-06-17T21:44:10.931Z,3.10
2018-06-17T21:46:40.185Z,3.60
2018-06-17T21:49:10.021Z,3.30
2018-06-17T21:51:39.656Z,3.30
2018-06-17T21:54:09.216Z,3.07
2018-06-17T21:56:38.730Z,3.10
2018-06-17T21:59:08.327Z,3.23
2018-06-17T22:01:37.854Z,3.07
2018-06-17T22:04:12.894Z,2.83
2018-06-17T22:06:43.280Z,3.37
2018-06-17T22:09:19.743Z,3.57
2018-06-17T22:14:01.771Z,3.13
2018-06-17T22:16:36.342Z,3.47
2018-06-17T22:19:05.943Z,3.30
2018-06-17T22:21:35.664Z,3.10
2018-06-17T22:24:05.451Z,3.27
2018-06-17T22:26:35.338Z,3.80
2018-06-17T22:29:05.054Z,3.40
2018-06-17T22:31:34.896Z,2.93
2018-06-17T22:34:04.513Z,2.80
2018-06-17T22:36:33.797Z,3.67
2018-06-17T22:39:03.282Z,3.30
2018-06-17T22:41:32.766Z,3.23
2018-06-17T22:44:02.313Z,3.80
2018-06-17T22:46:32.006Z,4.00
2018-06-17T22:49:01.363Z,3.63
2018-06-17T22:51:30.685Z,3.90
2018-06-17T22:54:11.306Z,3.87
2018-06-17T22:56:45.996Z,3.27
2018-06-17T22:59:21.103Z,4.37
2018-06-17T23:01:56.177Z,3.87
2018-06-17T23:04:30.986Z,4.57
2018-06-17T23:07:06.047Z,4.53
2018-06-17T23:09:38.621Z,3.90
2018-06-17T23:12:08.318Z,4.30
2018-06-17T23:14:38.243Z,4.90
2018-06-17T23:17:08.045Z,5.30
2018-06-17T23:19:37.993Z,4.87
2018-06-17T23:22:07.842Z,4.97
2018-06-17T23:24:37.930Z,5.23
2018-06-17T23:27:08.137Z,5.10
2018-06-17T23:29:38.316Z,5.50
2018-06-17T23:32:07.905Z,5.40
2018-06-17T23:34:37.409Z,5.30
2018-06-17T23:37:07.494Z,5.07
2018-06-17T23:39:37.699Z,6.30
2018-06-17T23:42:07.874Z,5.50
2018-06-17T23:44:37.382Z,5.40
2018-06-17T23:47:12.511Z,5.17
2018-06-17T23:49:47.254Z,4.60
2018-06-17T23:52:22.541Z,4.50
2018-06-17T23:54:57.349Z,4.60
2018-06-17T23:57:26.982Z,4.50
2018-06-17T23:59:56.768Z,4.93
